createdAt,value
2023-04-08T00:04:56.809Z,68.23
2023-04-08T00:10:02.163Z,66.74
2023-04-08T00:15:06.592Z,65.76
2023-04-08T00:20:10.974Z,66.38
2023-04-08T00:25:16.293Z,64.02
2023-04-08T00:30:19.996Z,65.71
2023-04-08T00:35:24.535Z,64.75
2023-04-08T00:40:30.809Z,64.75
2023-04-08T00:45:35.102Z,65.05
2023-04-08T00:50:38.705Z,66.36
2023-04-08T00:55:44.084Z,66.53
2023-04-08T01:00:54.568Z,65.20
2023-04-08T01:06:07.744Z,65.30
2023-04-08T01:11:14.704Z,64.41
2023-04-08T01:16:19.930Z,66.10
2023-04-08T01:21:26.347Z,66.19
2023-04-08T01:26:32.347Z,65.88
2023-04-08T01:31:39.433Z,66.98
2023-04-08T01:36:45.030Z,67.51
2023-04-08T01:41:51.316Z,67.88
2023-04-08T01:46:55.945Z,69.29
2023-04-08T01:52:01.496Z,68.39
2023-04-08T01:57:09.059Z,69.65
2023-04-08T02:02:13.728Z,69.91
2023-04-08T02:07:17.824Z,72.42
2023-04-08T02:12:23.300Z,73.09
2023-04-08T02:17:33.124Z,75.57
2023-04-08T02:22:44.280Z,76.94
2023-04-08T02:27:50.969Z,77.90
2023-04-08T02:32:57.336Z,75.57
2023-04-08T02:38:01.175Z,75.84
2023-04-08T02:43:06.495Z,77.19
2023-04-08T02:48:10.402Z,76.61
2023-04-08T02:53:14.029Z,75.83
2023-04-08T02:58:19.491Z,75.38
2023-04-08T03:03:23.280Z,78.03
2023-04-08T03:08:26.940Z,78.58
2023-04-08T03:13:32.929Z,76.10
2023-04-08T03:18:35.778Z,74.98
2023-04-08T03:23:40.073Z,76.66
2023-04-08T03:28:45.362Z,80.89
2023-04-08T03:33:49.101Z,81.87
2023-04-08T03:38:53.434Z,82.24
2023-04-08T03:43:59.212Z,82.92
2023-04-08T03:49:02.835Z,82.27
2023-04-08T03:54:06.450Z,81.91
2023-04-08T03:59:11.699Z,81.65
2023-04-08T04:04:15.542Z,81.41
2023-04-08T04:09:19.275Z,81.89
2023-04-08T04:14:24.617Z,82.34
2023-04-08T04:19:31.824Z,82.13
2023-04-08T04:24:35.514Z,81.78
2023-04-08T04:29:42.269Z,83.55
2023-04-08T04:34:45.911Z,85.08
2023-04-08T04:39:49.518Z,86.40
2023-04-08T04:44:54.799Z,86.75
2023-04-08T04:49:58.396Z,84.82
2023-04-08T04:55:02.034Z,84.61
2023-04-08T05:00:08.670Z,83.15
2023-04-08T05:05:12.389Z,82.61
2023-04-08T05:10:16.017Z,83.66
2023-04-08T05:15:21.569Z,85.11
2023-04-08T05:20:25.162Z,86.96
2023-04-08T05:25:28.830Z,85.57
2023-04-08T05:30:34.079Z,84.31
2023-04-08T05:35:37.848Z,83.51
2023-04-08T05:40:41.589Z,83.85
2023-04-08T05:45:46.904Z,84.07
2023-04-08T05:50:50.560Z,85.11
2023-04-08T05:55:54.137Z,85.58
2023-04-08T06:00:59.486Z,85.20
2023-04-08T06:06:03.164Z,85.12
2023-04-08T06:11:06.847Z,84.93
2023-04-08T06:16:19.602Z,85.39
2023-04-08T06:21:24.490Z,83.18
2023-04-08T06:26:28.090Z,83.79
2023-04-08T06:31:34.206Z,86.24
2023-04-08T06:36:37.117Z,85.55
2023-04-08T06:41:40.767Z,86.26
2023-04-08T06:46:46.077Z,86.29
2023-04-08T06:51:50.758Z,85.05
2023-04-08T06:56:54.397Z,85.39
2023-04-08T07:01:59.929Z,84.92
2023-04-08T07:07:03.631Z,85.87
2023-04-08T07:12:07.361Z,85.89
2023-04-08T07:17:12.616Z,85.06
2023-04-08T07:22:16.264Z,86.01
2023-04-08T07:27:19.882Z,86.43
2023-04-08T07:32:25.869Z,86.23
2023-04-08T07:37:29.569Z,85.40
2023-04-08T07:42:33.219Z,85.11
2023-04-08T07:47:39.516Z,85.42
2023-04-08T07:52:43.160Z,86.64
2023-04-08T07:57:46.793Z,85.50
2023-04-08T08:02:52.292Z,85.03
2023-04-08T08:07:56.020Z,85.88
2023-04-08T08:12:59.646Z,86.01
2023-04-08T08:18:05.106Z,86.78
2023-04-08T08:23:08.760Z,88.82
2023-04-08T08:28:12.360Z,88.10
2023-04-08T08:33:17.597Z,88.34
2023-04-08T08:38:21.294Z,88.03
2023-04-08T08:43:25.160Z,86.79
2023-04-08T08:48:32.040Z,87.78
2023-04-08T08:53:36.122Z,87.11
2023-04-08T08:58:39.831Z,86.41
2023-04-08T09:03:45.270Z,87.69
2023-04-08T09:08:50.248Z,87.78
2023-04-08T09:13:53.869Z,87.12
2023-04-08T09:19:09.963Z,87.93
2023-04-08T09:24:30.264Z,88.36
2023-04-08T09:29:35.232Z,87.75
2023-04-08T09:34:43.536Z,89.61
2023-04-08T09:39:47.171Z,87.64
2023-04-08T09:44:50.932Z,86.84
2023-04-08T09:49:59.294Z,88.43
2023-04-08T09:55:04.597Z,87.53
2023-04-08T10:00:13.848Z,86.85
2023-04-08T10:05:20.132Z,88.95
2023-04-08T10:10:23.124Z,89.01
2023-04-08T10:15:28.369Z,89.02
2023-04-08T10:20:47.031Z,88.20
2023-04-08T10:25:50.705Z,88.72
2023-04-08T10:30:54.933Z,88.94
2023-04-08T10:36:10.381Z,89.43
2023-04-08T10:41:14.495Z,88.87
2023-04-08T10:46:18.239Z,88.49
2023-04-08T10:51:23.893Z,88.26
2023-04-08T10:56:27.572Z,88.25
2023-04-08T11:01:41.256Z,89.53
2023-04-08T11:06:47.624Z,88.60
2023-04-08T11:11:51.219Z,89.86
2023-04-08T11:16:54.974Z,88.48
2023-04-08T11:22:00.434Z,87.38
2023-04-08T11:27:04.957Z,88.10
2023-04-08T11:32:09.035Z,89.09
2023-04-08T11:37:14.286Z,88.79
2023-04-08T11:42:28.710Z,90.32
2023-04-08T11:47:32.941Z,89.51
2023-04-08T11:52:45.728Z,91.45
2023-04-08T11:57:49.326Z,90.17
2023-04-08T12:02:53.250Z,89.82
2023-04-08T12:07:58.595Z,90.45
2023-04-08T12:13:02.210Z,89.32
2023-04-08T12:18:07.460Z,89.82
2023-04-08T12:23:12.689Z,89.37
2023-04-08T12:28:16.306Z,88.00
2023-04-08T12:33:19.891Z,87.74
2023-04-08T12:38:25.248Z,85.91
2023-04-08T12:43:28.903Z,88.51
2023-04-08T12:48:32.497Z,88.92
2023-04-08T12:53:37.775Z,88.34
2023-04-08T12:58:41.357Z,88.58
2023-04-08T13:03:46.977Z,89.56
2023-04-08T13:08:52.605Z,89.72
2023-04-08T13:13:56.389Z,89.93
2023-04-08T13:18:59.999Z,90.51
2023-04-08T13:24:05.704Z,91.97
2023-04-08T13:29:09.310Z,91.08
2023-04-08T13:34:13.662Z,90.76
2023-04-08T13:39:18.919Z,89.41
2023-04-08T13:44:22.529Z,89.91
2023-04-08T13:49:26.168Z,89.45
2023-04-08T13:54:31.452Z,90.66
2023-04-08T13:59:35.119Z,89.96
2023-04-08T14:04:38.734Z,89.49
2023-04-08T14:09:44.064Z,88.55
2023-04-08T14:14:47.869Z,88.43
2023-04-08T14:19:53.965Z,87.77
2023-04-08T14:24:59.298Z,88.88
2023-04-08T14:30:03.003Z,89.91
2023-04-08T14:35:08.780Z,90.07
2023-04-08T14:40:14.560Z,90.80
2023-04-08T14:45:18.522Z,90.57
2023-04-08T14:50:22.239Z,90.51
2023-04-08T14:55:27.514Z,89.42
2023-04-08T15:00:31.114Z,89.24
2023-04-08T15:05:36.693Z,86.98
2023-04-08T15:10:42.124Z,88.47
2023-04-08T15:15:45.840Z,86.86
2023-04-08T15:20:49.497Z,85.68
2023-04-08T15:25:54.803Z,86.63
2023-04-08T15:30:58.467Z,86.43
2023-04-08T15:36:02.202Z,86.91
2023-04-08T15:41:07.524Z,84.14
2023-04-08T15:46:11.153Z,83.73
2023-04-08T15:51:14.834Z,81.76
2023-04-08T15:56:20.344Z,80.42
2023-04-08T16:01:24.014Z,79.47
2023-04-08T16:06:27.717Z,78.45
2023-04-08T16:11:34.893Z,74.56
2023-04-08T16:16:38.822Z,75.23
2023-04-08T16:21:42.574Z,75.37
2023-04-08T16:26:48.744Z,73.40
2023-04-08T16:31:55.173Z,72.56
2023-04-08T16:36:58.919Z,71.53
2023-04-08T16:42:04.211Z,71.27
2023-04-08T16:47:07.833Z,68.60
2023-04-08T16:52:11.397Z,65.41
2023-04-08T16:57:17.615Z,62.16
2023-04-08T17:02:21.305Z,63.55
2023-04-08T17:07:25.055Z,61.52
2023-04-08T17:12:33.297Z,59.44
2023-04-08T17:17:36.983Z,59.68
2023-04-08T17:22:40.636Z,58.99
2023-04-08T17:27:45.881Z,59.58
2023-04-08T17:32:49.942Z,61.20
2023-04-08T17:37:53.563Z,61.04
2023-04-08T17:42:59.823Z,59.47
2023-04-08T17:48:03.442Z,59.91
2023-04-08T17:53:07.077Z,59.21
2023-04-08T17:58:12.376Z,58.09
2023-04-08T18:03:16.296Z,58.64
2023-04-08T18:08:20.079Z,58.45
2023-04-08T18:13:25.422Z,61.14
2023-04-08T18:18:29.032Z,61.40
2023-04-08T18:23:32.638Z,61.14
2023-04-08T18:28:37.882Z,60.95
2023-04-08T18:33:41.465Z,60.27
2023-04-08T18:38:45.681Z,60.85
2023-04-08T18:43:52.884Z,60.25
2023-04-08T18:48:56.822Z,58.94
2023-04-08T18:54:00.444Z,58.77
2023-04-08T18:59:05.751Z,55.26
2023-04-08T19:04:11.024Z,56.65
2023-04-08T19:09:14.631Z,56.21
2023-04-08T19:14:20.059Z,55.93
2023-04-08T19:19:23.699Z,55.83
2023-04-08T19:24:27.399Z,53.98
2023-04-08T19:29:34.643Z,55.34
2023-04-08T19:34:38.880Z,53.88
2023-04-08T19:39:42.490Z,53.80
2023-04-08T19:44:47.773Z,54.20
2023-04-08T19:49:51.401Z,53.31
2023-04-08T19:54:55.205Z,53.44
2023-04-08T20:00:00.510Z,51.97
2023-04-08T20:05:04.262Z,51.70
2023-04-08T20:10:09.106Z,53.76
2023-04-08T20:15:24.205Z,50.78
2023-04-08T20:20:29.567Z,49.56
2023-04-08T20:25:33.709Z,48.41
2023-04-08T20:30:39.071Z,50.33
2023-04-08T20:35:42.716Z,49.21
2023-04-08T20:40:46.374Z,49.81
2023-04-08T20:45:51.633Z,47.96
2023-04-08T20:50:55.283Z,48.71
2023-04-08T20:55:58.890Z,48.36
2023-04-08T21:01:04.228Z,48.76
2023-04-08T21:06:08.149Z,49.03
2023-04-08T21:11:11.892Z,49.84
2023-04-08T21:16:17.316Z,53.50
2023-04-08T21:21:20.277Z,46.41
2023-04-08T21:26:23.930Z,47.61
2023-04-08T21:31:32.226Z,50.00
2023-04-08T21:36:35.845Z,48.87
2023-04-08T21:41:39.450Z,48.13
2023-04-08T21:46:44.745Z,48.78
2023-04-08T21:51:47.712Z,48.90
2023-04-08T21:56:51.318Z,47.97
2023-04-08T22:01:56.628Z,49.49
2023-04-08T22:23:57.564Z,50.77
2023-04-08T22:29:01.240Z,49.94
2023-04-08T22:34:04.959Z,50.70
2023-04-08T22:39:10.278Z,50.72
2023-04-08T22:44:13.933Z,49.72
2023-04-08T22:49:17.651Z,49.87
2023-04-08T22:54:23.890Z,49.47
2023-04-08T22:59:27.528Z,50.27
2023-04-08T23:04:31.217Z,51.47
2023-04-08T23:09:36.545Z,50.68
2023-04-08T23:14:40.258Z,50.17
2023-04-08T23:19:43.829Z,51.74
2023-04-08T23:24:50.244Z,50.94
2023-04-08T23:29:53.889Z,51.89
2023-04-08T23:34:57.543Z,51.56
2023-04-08T23:40:02.826Z,49.29
2023-04-08T23:45:07.487Z,49.12
2023-04-08T23:50:11.484Z,49.59
2023-04-08T23:55:19.046Z,49.79
